sensor_id;sensor_type;location;lat;lon;timestamp;pressure;altitude;pressure_sealevel;temperature;humidity
37904;BME280;23738;50.422;18.758;2022-08-11T00:00:00;99296.83;;;13.87;60.83
37904;BME280;23738;50.422;18.758;2022-08-11T00:02:43;99296.83;;;13.87;60.83
37904;BME280;23738;50.422;18.758;2022-08-11T00:05:13;99298.34;;;13.85;60.63
37904;BME280;23738;50.422;18.758;2022-08-11T00:07:51;99298.34;;;13.85;60.63
37904;BME280;23738;50.422;18.758;2022-08-11T00:10:22;99307.84;;;13.84;60.78
37904;BME280;23738;50.422;18.758;2022-08-11T00:12:59;99302.33;;;13.78;60.83
37904;BME280;23738;50.422;18.758;2022-08-11T00:15:38;99302.09;;;13.73;60.89
37904;BME280;23738;50.422;18.758;2022-08-11T00:18:03;99299.85;;;13.70;60.93
37904;BME280;23738;50.422;18.758;2022-08-11T00:20:33;99299.85;;;13.70;61.28
37904;BME280;23738;50.422;18.758;2022-08-11T00:23:07;99293.53;;;13.71;61.46
37904;BME280;23738;50.422;18.758;2022-08-11T00:25:40;99293.84;;;13.72;61.45
37904;BME280;23738;50.422;18.758;2022-08-11T00:28:31;99295.17;;;13.72;61.44
37904;BME280;23738;50.422;18.758;2022-08-11T00:33:50;99286.66;;;13.66;61.43
37904;BME280;23738;50.422;18.758;2022-08-11T00:36:18;99291.45;;;13.60;61.41
37904;BME280;23738;50.422;18.758;2022-08-11T00:38:48;99290.92;;;13.54;61.53
37904;BME280;23738;50.422;18.758;2022-08-11T00:50:26;99289.98;;;13.51;61.95
37904;BME280;23738;50.422;18.758;2022-08-11T00:59:20;99287.11;;;13.39;62.02
37904;BME280;23738;50.422;18.758;2022-08-11T01:05:05;99284.83;;;13.30;62.15
37904;BME280;23738;50.422;18.758;2022-08-11T01:08:00;99284.83;;;13.30;62.60
37904;BME280;23738;50.422;18.758;2022-08-11T01:13:50;99279.41;;;13.34;62.65
37904;BME280;23738;50.422;18.758;2022-08-11T01:34:14;99281.86;;;13.29;63.29
37904;BME280;23738;50.422;18.758;2022-08-11T01:37:05;99280.84;;;13.30;63.22
37904;BME280;23738;50.422;18.758;2022-08-11T01:46:31;99278.36;;;13.22;63.16
37904;BME280;23738;50.422;18.758;2022-08-11T01:55:11;99273.27;;;13.10;63.59
37904;BME280;23738;50.422;18.758;2022-08-11T02:00:53;99271.75;;;13.11;63.79
37904;BME280;23738;50.422;18.758;2022-08-11T02:06:29;99275.63;;;13.09;63.83
37904;BME280;23738;50.422;18.758;2022-08-11T02:12:45;99265.19;;;13.00;63.74
37904;BME280;23738;50.422;18.758;2022-08-11T02:15:27;99260.27;;;12.97;63.87
37904;BME280;23738;50.422;18.758;2022-08-11T02:18:07;99266.89;;;12.97;64.23
37904;BME280;23738;50.422;18.758;2022-08-11T02:20:45;99264.88;;;12.99;64.42
37904;BME280;23738;50.422;18.758;2022-08-11T02:23:58;99261.49;;;13.01;64.39
37904;BME280;23738;50.422;18.758;2022-08-11T02:26:25;99261.91;;;12.98;64.35
37904;BME280;23738;50.422;18.758;2022-08-11T02:29:27;99263.93;;;12.96;64.44
37904;BME280;23738;50.422;18.758;2022-08-11T02:32:22;99266.27;;;12.95;64.43
37904;BME280;23738;50.422;18.758;2022-08-11T02:44:23;99258.02;;;13.01;64.75
37904;BME280;23738;50.422;18.758;2022-08-11T02:47:14;99259.88;;;13.00;64.75
37904;BME280;23738;50.422;18.758;2022-08-11T02:49:59;99261.59;;;12.97;64.81
37904;BME280;23738;50.422;18.758;2022-08-11T02:58:16;99264.59;;;12.88;64.87
37904;BME280;23738;50.422;18.758;2022-08-11T03:00:51;99264.79;;;12.86;65.15
37904;BME280;23738;50.422;18.758;2022-08-11T03:03:30;99264.19;;;12.84;64.08
37904;BME280;23738;50.422;18.758;2022-08-11T03:09:18;99262.05;;;12.84;65.20
37904;BME280;23738;50.422;18.758;2022-08-11T03:14:54;99269.34;;;12.75;65.18
37904;BME280;23738;50.422;18.758;2022-08-11T03:21:20;99274.38;;;12.70;65.62
37904;BME280;23738;50.422;18.758;2022-08-11T03:24:17;99280.70;;;12.69;65.72
37904;BME280;23738;50.422;18.758;2022-08-11T03:33:25;99279.02;;;12.61;65.62
37904;BME280;23738;50.422;18.758;2022-08-11T03:41:46;99272.55;;;12.53;65.98
37904;BME280;23738;50.422;18.758;2022-08-11T03:47:59;99281.95;;;12.56;66.06
37904;BME280;23738;50.422;18.758;2022-08-11T03:53:41;99272.77;;;12.52;66.03
37904;BME280;23738;50.422;18.758;2022-08-11T04:02:25;99270.93;;;12.52;66.44
37904;BME280;23738;50.422;18.758;2022-08-11T04:08:15;99270.66;;;12.58;66.50
37904;BME280;23738;50.422;18.758;2022-08-11T04:16:43;99262.07;;;12.56;66.46
37904;BME280;23738;50.422;18.758;2022-08-11T04:28:35;99267.06;;;12.72;66.92
37904;BME280;23738;50.422;18.758;2022-08-11T04:37:05;99259.57;;;12.99;67.21
37904;BME280;23738;50.422;18.758;2022-08-11T04:43:30;99261.78;;;13.37;67.83
37904;BME280;23738;50.422;18.758;2022-08-11T04:46:30;99264.28;;;13.65;67.89
37904;BME280;23738;50.422;18.758;2022-08-11T04:56:08;99261.29;;;14.60;68.20
37904;BME280;23738;50.422;18.758;2022-08-11T05:04:45;99271.56;;;15.14;67.93
37904;BME280;23738;50.422;18.758;2022-08-11T05:13:38;99276.70;;;15.76;67.52
37904;BME280;23738;50.422;18.758;2022-08-11T05:16:49;99277.21;;;15.91;67.49
37904;BME280;23738;50.422;18.758;2022-08-11T05:19:36;99270.78;;;16.15;67.63
37904;BME280;23738;50.422;18.758;2022-08-11T05:22:11;99269.97;;;16.39;67.49
37904;BME280;23738;50.422;18.758;2022-08-11T05:28:02;99271.98;;;16.77;67.12
37904;BME280;23738;50.422;18.758;2022-08-11T05:30:45;99272.28;;;16.88;66.93
37904;BME280;23738;50.422;18.758;2022-08-11T05:33:45;99271.17;;;17.04;66.86
37904;BME280;23738;50.422;18.758;2022-08-11T05:36:42;99280.44;;;17.20;66.41
37904;BME280;23738;50.422;18.758;2022-08-11T05:39:15;99277.59;;;17.33;66.49
37904;BME280;23738;50.422;18.758;2022-08-11T05:42:05;99272.40;;;17.47;66.50
37904;BME280;23738;50.422;18.758;2022-08-11T05:44:53;99275.11;;;17.68;66.70
37904;BME280;23738;50.422;18.758;2022-08-11T05:47:40;99274.36;;;17.91;66.49
37904;BME280;23738;50.422;18.758;2022-08-11T05:50:26;99269.25;;;18.10;66.26
37904;BME280;23738;50.422;18.758;2022-08-11T05:53:11;99278.78;;;18.29;66.05
37904;BME280;23738;50.422;18.758;2022-08-11T05:55:57;99275.66;;;18.44;65.83
37904;BME280;23738;50.422;18.758;2022-08-11T05:58:45;99273.12;;;18.61;65.70
37904;BME280;23738;50.422;18.758;2022-08-11T06:01:24;99275.36;;;18.76;65.45
37904;BME280;23738;50.422;18.758;2022-08-11T06:03:54;99272.65;;;18.87;65.28
37904;BME280;23738;50.422;18.758;2022-08-11T06:06:55;99274.83;;;19.02;65.22
37904;BME280;23738;50.422;18.758;2022-08-11T06:09:37;99283.83;;;19.22;65.05
37904;BME280;23738;50.422;18.758;2022-08-11T06:12:07;99282.84;;;19.39;64.78
37904;BME280;23738;50.422;18.758;2022-08-11T06:14:44;99281.02;;;19.54;64.68
37904;BME280;23738;50.422;18.758;2022-08-11T06:17:11;99282.41;;;19.71;64.74
37904;BME280;23738;50.422;18.758;2022-08-11T06:19:41;99282.28;;;19.94;64.73
37904;BME280;23738;50.422;18.758;2022-08-11T06:22:12;99292.34;;;20.18;64.38
37904;BME280;23738;50.422;18.758;2022-08-11T06:24:40;99292.73;;;20.41;64.01
37904;BME280;23738;50.422;18.758;2022-08-11T06:27:07;99289.58;;;20.63;63.76
37904;BME280;23738;50.422;18.758;2022-08-11T06:29:35;99285.59;;;20.85;63.45
37904;BME280;23738;50.422;18.758;2022-08-11T06:32:04;99288.56;;;21.05;63.12
37904;BME280;23738;50.422;18.758;2022-08-11T06:35:00;99285.86;;;21.24;62.82
37904;BME280;23738;50.422;18.758;2022-08-11T06:46:35;99279.38;;;22.23;61.74
37904;BME280;23738;50.422;18.758;2022-08-11T06:49:07;99277.91;;;22.44;61.32
37904;BME280;23738;50.422;18.758;2022-08-11T06:52:00;99284.01;;;22.69;60.96
37904;BME280;23738;50.422;18.758;2022-08-11T06:54:35;99276.39;;;22.96;60.50
37904;BME280;23738;50.422;18.758;2022-08-11T06:57:04;99276.23;;;23.20;60.09
37904;BME280;23738;50.422;18.758;2022-08-11T06:59:50;99273.87;;;23.36;59.72
37904;BME280;23738;50.422;18.758;2022-08-11T07:05:23;99275.88;;;23.79;58.47
37904;BME280;23738;50.422;18.758;2022-08-11T07:14:16;99275.13;;;24.36;56.92
37904;BME280;23738;50.422;18.758;2022-08-11T07:17:05;99268.36;;;24.52;56.65
37904;BME280;23738;50.422;18.758;2022-08-11T07:19:33;99265.09;;;24.72;56.14
37904;BME280;23738;50.422;18.758;2022-08-11T07:22:19;99261.27;;;24.86;55.09
37904;BME280;23738;50.422;18.758;2022-08-11T07:25:12;99259.59;;;25.08;54.81
37904;BME280;23738;50.422;18.758;2022-08-11T07:28:00;99263.05;;;25.24;54.11
37904;BME280;23738;50.422;18.758;2022-08-11T07:30:47;99261.92;;;25.32;53.97
37904;BME280;23738;50.422;18.758;2022-08-11T07:33:20;99263.19;;;25.52;53.54
37904;BME280;23738;50.422;18.758;2022-08-11T07:35:55;99266.11;;;25.66;52.66
37904;BME280;23738;50.422;18.758;2022-08-11T07:38:24;99267.14;;;25.70;52.66
37904;BME280;23738;50.422;18.758;2022-08-11T07:40:56;99270.00;;;25.91;52.58
37904;BME280;23738;50.422;18.758;2022-08-11T07:43:23;99265.83;;;26.07;51.88
37904;BME280;23738;50.422;18.758;2022-08-11T07:45:49;99265.70;;;26.22;51.07
37904;BME280;23738;50.422;18.758;2022-08-11T07:48:34;99268.08;;;26.34;50.28
37904;BME280;23738;50.422;18.758;2022-08-11T07:51:19;99269.59;;;26.42;50.57
37904;BME280;23738;50.422;18.758;2022-08-11T07:54:04;99270.50;;;26.61;50.29
37904;BME280;23738;50.422;18.758;2022-08-11T07:56:34;99269.41;;;26.89;50.25
37904;BME280;23738;50.422;18.758;2022-08-11T07:59:05;99267.22;;;27.15;49.38
37904;BME280;23738;50.422;18.758;2022-08-11T08:01:50;99269.53;;;27.05;48.91
37904;BME280;23738;50.422;18.758;2022-08-11T08:04:35;99263.16;;;26.91;48.89
37904;BME280;23738;50.422;18.758;2022-08-11T08:07:20;99268.85;;;26.65;49.01
37904;BME280;23738;50.422;18.758;2022-08-11T08:10:07;99267.21;;;26.38;48.72
37904;BME280;23738;50.422;18.758;2022-08-11T08:12:54;99266.52;;;26.20;48.43
37904;BME280;23738;50.422;18.758;2022-08-11T08:15:40;99266.27;;;25.82;47.81
37904;BME280;23738;50.422;18.758;2022-08-11T08:18:26;99266.27;;;25.82;47.81
37904;BME280;23738;50.422;18.758;2022-08-11T08:20:54;99264.50;;;25.58;47.91
37904;BME280;23738;50.422;18.758;2022-08-11T08:23:25;99265.40;;;25.40;47.89
37904;BME280;23738;50.422;18.758;2022-08-11T08:25:59;99262.00;;;25.20;47.90
37904;BME280;23738;50.422;18.758;2022-08-11T08:28:27;99263.41;;;25.04;48.12
37904;BME280;23738;50.422;18.758;2022-08-11T08:30:54;99264.52;;;24.88;47.88
37904;BME280;23738;50.422;18.758;2022-08-11T08:33:28;99265.07;;;24.75;47.61
37904;BME280;23738;50.422;18.758;2022-08-11T08:36:00;99268.63;;;24.63;47.82
37904;BME280;23738;50.422;18.758;2022-08-11T08:38:47;99259.45;;;24.54;47.73
37904;BME280;23738;50.422;18.758;2022-08-11T08:41:18;99263.72;;;24.75;47.90
37904;BME280;23738;50.422;18.758;2022-08-11T08:43:49;99250.10;;;25.21;47.39
37904;BME280;23738;50.422;18.758;2022-08-11T08:46:20;99258.05;;;25.53;47.14
37904;BME280;23738;50.422;18.758;2022-08-11T08:48:48;99259.45;;;25.87;46.59
37904;BME280;23738;50.422;18.758;2022-08-11T08:51:15;99250.05;;;26.16;46.35
37904;BME280;23738;50.422;18.758;2022-08-11T08:54:18;99256.49;;;26.20;46.49
37904;BME280;23738;50.422;18.758;2022-08-11T08:56:43;99252.97;;;26.22;46.54
37904;BME280;23738;50.422;18.758;2022-08-11T08:59:12;99256.76;;;26.55;45.97
37904;BME280;23738;50.422;18.758;2022-08-11T09:04:17;99254.97;;;26.70;45.01
37904;BME280;23738;50.422;18.758;2022-08-11T09:06:44;99259.07;;;26.41;44.62
37904;BME280;23738;50.422;18.758;2022-08-11T09:09:12;99251.73;;;26.10;44.46
37904;BME280;23738;50.422;18.758;2022-08-11T09:11:40;99254.31;;;25.88;44.32
37904;BME280;23738;50.422;18.758;2022-08-11T09:14:35;99255.81;;;25.68;44.63
37904;BME280;23738;50.422;18.758;2022-08-11T09:17:22;99255.48;;;25.77;44.36
37904;BME280;23738;50.422;18.758;2022-08-11T09:19:51;99249.80;;;26.10;43.55
37904;BME280;23738;50.422;18.758;2022-08-11T09:22:26;99246.07;;;26.40;43.30
37904;BME280;23738;50.422;18.758;2022-08-11T09:25:14;99247.57;;;26.78;43.28
37904;BME280;23738;50.422;18.758;2022-08-11T09:27:59;99242.10;;;27.07;42.30
37904;BME280;23738;50.422;18.758;2022-08-11T09:30:26;99243.42;;;27.30;41.85
37904;BME280;23738;50.422;18.758;2022-08-11T09:32:54;99235.55;;;27.53;41.77
37904;BME280;23738;50.422;18.758;2022-08-11T09:35:25;99243.25;;;27.83;41.54
37904;BME280;23738;50.422;18.758;2022-08-11T09:37:54;99241.98;;;28.10;40.85
37904;BME280;23738;50.422;18.758;2022-08-11T09:40:41;99241.74;;;28.42;41.44
37904;BME280;23738;50.422;18.758;2022-08-11T09:43:09;99232.72;;;28.74;41.20
37904;BME280;23738;50.422;18.758;2022-08-11T09:45:57;99226.66;;;29.07;40.60
37904;BME280;23738;50.422;18.758;2022-08-11T09:48:25;99230.05;;;29.40;40.12
37904;BME280;23738;50.422;18.758;2022-08-11T09:50:54;99227.88;;;29.64;40.28
37904;BME280;23738;50.422;18.758;2022-08-11T09:53:24;99230.06;;;29.76;39.83
37904;BME280;23738;50.422;18.758;2022-08-11T09:55:52;99231.52;;;29.71;38.80
37904;BME280;23738;50.422;18.758;2022-08-11T09:58:19;99226.20;;;29.65;39.17
37904;BME280;23738;50.422;18.758;2022-08-11T10:00:48;99228.05;;;29.45;39.01
37904;BME280;23738;50.422;18.758;2022-08-11T10:03:17;99229.05;;;29.22;38.85
37904;BME280;23738;50.422;18.758;2022-08-11T10:05:48;99226.63;;;29.34;38.99
37904;BME280;23738;50.422;18.758;2022-08-11T10:08:39;99217.97;;;29.57;38.55
37904;BME280;23738;50.422;18.758;2022-08-11T10:11:10;99218.55;;;29.67;38.12
37904;BME280;23738;50.422;18.758;2022-08-11T10:13:43;99219.88;;;29.45;38.49
37904;BME280;23738;50.422;18.758;2022-08-11T10:16:31;99213.91;;;29.18;38.54
37904;BME280;23738;50.422;18.758;2022-08-11T10:19:01;99220.80;;;28.88;38.79
37904;BME280;23738;50.422;18.758;2022-08-11T10:21:50;99214.88;;;28.98;38.47
37904;BME280;23738;50.422;18.758;2022-08-11T10:24:35;99210.89;;;29.20;37.56
37904;BME280;23738;50.422;18.758;2022-08-11T10:27:19;99204.72;;;29.28;37.24
37904;BME280;23738;50.422;18.758;2022-08-11T10:29:45;99196.98;;;29.46;39.55
37904;BME280;23738;50.422;18.758;2022-08-11T10:32:31;99194.05;;;29.67;37.92
37904;BME280;23738;50.422;18.758;2022-08-11T10:35:17;99195.09;;;29.58;37.00
37904;BME280;23738;50.422;18.758;2022-08-11T10:37:46;99198.84;;;29.37;36.80
37904;BME280;23738;50.422;18.758;2022-08-11T10:40:15;99189.42;;;29.18;36.72
37904;BME280;23738;50.422;18.758;2022-08-11T10:42:42;99182.45;;;29.26;36.71
37904;BME280;23738;50.422;18.758;2022-08-11T10:45:34;99187.70;;;29.47;36.59
37904;BME280;23738;50.422;18.758;2022-08-11T10:48:21;99176.83;;;29.81;36.71
37904;BME280;23738;50.422;18.758;2022-08-11T10:50:50;99175.63;;;30.09;35.82
37904;BME280;23738;50.422;18.758;2022-08-11T10:53:37;99188.59;;;29.90;35.69
37904;BME280;23738;50.422;18.758;2022-08-11T10:56:23;99191.44;;;29.74;36.00
37904;BME280;23738;50.422;18.758;2022-08-11T10:59:08;99170.84;;;29.92;35.97
37904;BME280;23738;50.422;18.758;2022-08-11T11:01:40;99171.24;;;30.19;35.84
37904;BME280;23738;50.422;18.758;2022-08-11T11:04:13;99173.70;;;30.29;35.30
37904;BME280;23738;50.422;18.758;2022-08-11T11:07:20;99168.45;;;30.41;35.27
37904;BME280;23738;50.422;18.758;2022-08-11T11:09:55;99163.69;;;30.47;35.44
37904;BME280;23738;50.422;18.758;2022-08-11T11:12:26;99159.06;;;30.36;35.84
37904;BME280;23738;50.422;18.758;2022-08-11T11:15:13;99159.69;;;30.02;35.48
37904;BME280;23738;50.422;18.758;2022-08-11T11:18:11;99160.67;;;29.62;35.70
37904;BME280;23738;50.422;18.758;2022-08-11T11:20:52;99157.20;;;29.23;35.48
37904;BME280;23738;50.422;18.758;2022-08-11T11:23:40;99159.75;;;28.95;36.01
37904;BME280;23738;50.422;18.758;2022-08-11T11:29:06;99153.11;;;28.32;36.24
37904;BME280;23738;50.422;18.758;2022-08-11T11:32:26;99143.22;;;28.06;36.58
37904;BME280;23738;50.422;18.758;2022-08-11T11:35:00;99150.02;;;28.06;37.59
37904;BME280;23738;50.422;18.758;2022-08-11T11:37:37;99140.73;;;28.40;36.45
37904;BME280;23738;50.422;18.758;2022-08-11T11:40:12;99136.42;;;28.80;36.34
37904;BME280;23738;50.422;18.758;2022-08-11T11:42:43;99131.29;;;29.14;36.00
37904;BME280;23738;50.422;18.758;2022-08-11T11:45:14;99127.28;;;29.12;35.90
37904;BME280;23738;50.422;18.758;2022-08-11T11:47:43;99114.11;;;29.05;35.91
37904;BME280;23738;50.422;18.758;2022-08-11T11:50:11;99118.14;;;29.19;36.03
37904;BME280;23738;50.422;18.758;2022-08-11T11:52:39;99117.97;;;29.26;36.25
37904;BME280;23738;50.422;18.758;2022-08-11T11:55:06;99114.75;;;29.13;36.60
37904;BME280;23738;50.422;18.758;2022-08-11T11:57:33;99102.39;;;28.93;36.33
37904;BME280;23738;50.422;18.758;2022-08-11T12:00:18;99111.99;;;28.77;35.88
37904;BME280;23738;50.422;18.758;2022-08-11T12:03:07;99108.66;;;28.53;36.76
37904;BME280;23738;50.422;18.758;2022-08-11T12:05:33;99103.97;;;28.70;36.68
37904;BME280;23738;50.422;18.758;2022-08-11T12:08:01;99104.31;;;28.93;36.51
37904;BME280;23738;50.422;18.758;2022-08-11T12:10:36;99103.78;;;29.16;36.02
37904;BME280;23738;50.422;18.758;2022-08-11T12:13:03;99103.17;;;29.30;35.82
37904;BME280;23738;50.422;18.758;2022-08-11T12:15:49;99102.61;;;29.08;35.60
37904;BME280;23738;50.422;18.758;2022-08-11T12:18:17;99105.12;;;28.93;35.80
37904;BME280;23738;50.422;18.758;2022-08-11T12:20:44;99099.08;;;29.08;35.35
37904;BME280;23738;50.422;18.758;2022-08-11T12:23:12;99096.50;;;29.25;35.68
37904;BME280;23738;50.422;18.758;2022-08-11T12:25:58;99085.48;;;29.44;35.70
37904;BME280;23738;50.422;18.758;2022-08-11T12:28:44;99077.23;;;29.68;35.87
37904;BME280;23738;50.422;18.758;2022-08-11T12:31:10;99072.74;;;29.95;35.76
37904;BME280;23738;50.422;18.758;2022-08-11T12:33:38;99075.96;;;29.97;35.40
37904;BME280;23738;50.422;18.758;2022-08-11T12:36:10;99077.70;;;29.71;35.18
37904;BME280;23738;50.422;18.758;2022-08-11T12:38:39;99079.59;;;29.39;35.23
37904;BME280;23738;50.422;18.758;2022-08-11T12:41:05;99074.68;;;29.05;35.25
37904;BME280;23738;50.422;18.758;2022-08-11T12:43:49;99072.16;;;28.70;35.75
37904;BME280;23738;50.422;18.758;2022-08-11T12:46:35;99063.55;;;28.41;35.50
37904;BME280;23738;50.422;18.758;2022-08-11T12:49:18;99066.96;;;28.19;36.24
37904;BME280;23738;50.422;18.758;2022-08-11T12:52:09;99066.96;;;28.19;36.08
37904;BME280;23738;50.422;18.758;2022-08-11T12:57:44;99051.73;;;28.59;35.41
37904;BME280;23738;50.422;18.758;2022-08-11T13:00:30;99052.83;;;28.85;35.89
37904;BME280;23738;50.422;18.758;2022-08-11T13:03:18;99046.55;;;29.10;35.81
37904;BME280;23738;50.422;18.758;2022-08-11T13:06:04;99042.30;;;29.28;35.58
37904;BME280;23738;50.422;18.758;2022-08-11T13:08:34;99033.17;;;29.36;35.54
37904;BME280;23738;50.422;18.758;2022-08-11T13:11:02;99041.75;;;29.40;35.74
37904;BME280;23738;50.422;18.758;2022-08-11T13:13:48;99037.88;;;29.30;35.18
37904;BME280;23738;50.422;18.758;2022-08-11T13:16:17;99035.25;;;29.39;35.41
37904;BME280;23738;50.422;18.758;2022-08-11T13:18:45;99033.83;;;29.41;34.96
37904;BME280;23738;50.422;18.758;2022-08-11T13:21:11;99030.75;;;29.45;35.03
37904;BME280;23738;50.422;18.758;2022-08-11T13:23:39;99019.17;;;29.51;34.20
37904;BME280;23738;50.422;18.758;2022-08-11T13:26:06;99023.30;;;29.59;34.27
37904;BME280;23738;50.422;18.758;2022-08-11T13:28:35;99023.41;;;29.65;34.22
37904;BME280;23738;50.422;18.758;2022-08-11T13:31:02;99018.91;;;29.81;34.69
37904;BME280;23738;50.422;18.758;2022-08-11T13:33:41;99021.42;;;29.88;34.38
37904;BME280;23738;50.422;18.758;2022-08-11T13:36:20;99021.63;;;29.81;34.00
37904;BME280;23738;50.422;18.758;2022-08-11T13:38:44;99026.99;;;29.63;34.04
37904;BME280;23738;50.422;18.758;2022-08-11T13:41:10;99021.48;;;29.35;34.58
37904;BME280;23738;50.422;18.758;2022-08-11T13:43:55;99020.66;;;29.12;34.53
37904;BME280;23738;50.422;18.758;2022-08-11T13:46:23;99017.91;;;28.79;34.51
37904;BME280;23738;50.422;18.758;2022-08-11T13:48:53;99009.52;;;28.75;35.16
37904;BME280;23738;50.422;18.758;2022-08-11T13:51:21;99007.03;;;28.79;35.16
37904;BME280;23738;50.422;18.758;2022-08-11T13:54:01;98993.13;;;28.91;34.92
37904;BME280;23738;50.422;18.758;2022-08-11T13:56:36;98993.65;;;29.05;34.42
37904;BME280;23738;50.422;18.758;2022-08-11T13:59:07;98993.02;;;29.08;33.86
37904;BME280;23738;50.422;18.758;2022-08-11T14:01:36;98997.29;;;28.89;34.11
37904;BME280;23738;50.422;18.758;2022-08-11T14:04:22;98993.59;;;28.71;34.35
37904;BME280;23738;50.422;18.758;2022-08-11T14:06:52;98993.78;;;28.50;34.72
37904;BME280;23738;50.422;18.758;2022-08-11T14:09:24;99001.53;;;28.32;34.85
37904;BME280;23738;50.422;18.758;2022-08-11T14:11:56;98999.16;;;28.28;35.31
37904;BME280;23738;50.422;18.758;2022-08-11T14:14:42;98997.06;;;28.25;35.19
37904;BME280;23738;50.422;18.758;2022-08-11T14:17:14;98994.36;;;28.36;35.82
37904;BME280;23738;50.422;18.758;2022-08-11T14:19:43;98997.13;;;28.47;35.81
37904;BME280;23738;50.422;18.758;2022-08-11T14:22:13;99000.83;;;28.51;35.78
37904;BME280;23738;50.422;18.758;2022-08-11T14:24:42;99032.52;;;28.31;35.17
37904;BME280;23738;50.422;18.758;2022-08-11T14:27:12;99088.11;;;28.06;36.00
37904;BME280;23738;50.422;18.758;2022-08-11T14:29:40;99084.01;;;27.27;37.36
37904;BME280;23738;50.422;18.758;2022-08-11T14:32:11;99085.86;;;26.28;39.00
37904;BME280;23738;50.422;18.758;2022-08-11T14:34:40;99118.01;;;25.43;40.79
37904;BME280;23738;50.422;18.758;2022-08-11T14:37:13;99119.73;;;24.74;42.51
37904;BME280;23738;50.422;18.758;2022-08-11T14:39:45;99125.02;;;24.35;43.04
37904;BME280;23738;50.422;18.758;2022-08-11T14:42:14;99135.33;;;23.88;44.02
37904;BME280;23738;50.422;18.758;2022-08-11T14:45:08;99148.54;;;23.46;45.14
37904;BME280;23738;50.422;18.758;2022-08-11T14:47:59;99158.42;;;23.05;45.91
37904;BME280;23738;50.422;18.758;2022-08-11T14:50:28;99150.45;;;22.66;46.51
37904;BME280;23738;50.422;18.758;2022-08-11T14:52:58;99144.89;;;22.33;47.10
37904;BME280;23738;50.422;18.758;2022-08-11T14:55:28;99158.11;;;21.97;48.03
37904;BME280;23738;50.422;18.758;2022-08-11T14:58:16;99158.47;;;21.76;48.28
37904;BME280;23738;50.422;18.758;2022-08-11T15:00:44;99151.59;;;21.59;48.54
37904;BME280;23738;50.422;18.758;2022-08-11T15:03:11;99157.33;;;21.38;49.02
37904;BME280;23738;50.422;18.758;2022-08-11T15:05:41;99157.70;;;21.22;49.34
37904;BME280;23738;50.422;18.758;2022-08-11T15:08:12;99158.66;;;21.14;49.47
37904;BME280;23738;50.422;18.758;2022-08-11T15:10:39;99153.74;;;21.08;49.85
37904;BME280;23738;50.422;18.758;2022-08-11T15:13:05;99155.86;;;21.04;50.25
37904;BME280;23738;50.422;18.758;2022-08-11T15:15:32;99155.32;;;21.04;50.51
37904;BME280;23738;50.422;18.758;2022-08-11T15:18:19;99152.07;;;21.02;51.03
37904;BME280;23738;50.422;18.758;2022-08-11T15:20:49;99151.25;;;20.99;50.88
37904;BME280;23738;50.422;18.758;2022-08-11T15:23:28;99139.94;;;20.97;51.13
37904;BME280;23738;50.422;18.758;2022-08-11T15:26:18;99131.56;;;20.93;51.63
37904;BME280;23738;50.422;18.758;2022-08-11T15:29:23;99125.05;;;20.87;52.21
37904;BME280;23738;50.422;18.758;2022-08-11T15:32:11;99135.14;;;20.77;52.46
37904;BME280;23738;50.422;18.758;2022-08-11T15:34:56;99126.94;;;20.65;52.45
37904;BME280;23738;50.422;18.758;2022-08-11T15:37:40;99120.48;;;20.63;52.62
37904;BME280;23738;50.422;18.758;2022-08-11T15:40:20;99118.85;;;20.62;52.79
37904;BME280;23738;50.422;18.758;2022-08-11T15:43:37;99119.09;;;20.60;53.08
37904;BME280;23738;50.422;18.758;2022-08-11T15:49:12;99120.95;;;20.57;53.34
37904;BME280;23738;50.422;18.758;2022-08-11T15:52:05;99116.08;;;20.54;53.49
37904;BME280;23738;50.422;18.758;2022-08-11T15:54:32;99119.81;;;20.53;54.32
37904;BME280;23738;50.422;18.758;2022-08-11T15:57:01;99113.11;;;20.53;54.72
37904;BME280;23738;50.422;18.758;2022-08-11T15:59:35;99108.31;;;20.55;55.52
37904;BME280;23738;50.422;18.758;2022-08-11T16:02:21;99111.84;;;20.58;55.93
37904;BME280;23738;50.422;18.758;2022-08-11T16:04:53;99103.03;;;20.63;56.11
37904;BME280;23738;50.422;18.758;2022-08-11T16:07:22;99113.81;;;20.66;56.45
37904;BME280;23738;50.422;18.758;2022-08-11T16:10:09;99119.46;;;20.67;56.66
37904;BME280;23738;50.422;18.758;2022-08-11T16:12:42;99114.34;;;20.65;56.75
37904;BME280;23738;50.422;18.758;2022-08-11T16:15:31;99116.45;;;20.63;56.59
37904;BME280;23738;50.422;18.758;2022-08-11T16:18:21;99116.08;;;20.54;56.52
37904;BME280;23738;50.422;18.758;2022-08-11T16:20:52;99115.41;;;20.45;56.51
37904;BME280;23738;50.422;18.758;2022-08-11T16:23:22;99113.45;;;20.38;56.54
37904;BME280;23738;50.422;18.758;2022-08-11T16:25:53;99114.17;;;20.33;56.95
37904;BME280;23738;50.422;18.758;2022-08-11T16:28:20;99108.47;;;20.27;57.12
37904;BME280;23738;50.422;18.758;2022-08-11T16:30:47;99106.20;;;20.19;57.31
37904;BME280;23738;50.422;18.758;2022-08-11T16:33:14;99106.88;;;20.09;57.36
37904;BME280;23738;50.422;18.758;2022-08-11T16:35:43;99095.75;;;20.01;58.05
37904;BME280;23738;50.422;18.758;2022-08-11T16:38:28;99091.93;;;19.97;58.01
37904;BME280;23738;50.422;18.758;2022-08-11T16:41:14;99099.42;;;19.95;58.22
37904;BME280;23738;50.422;18.758;2022-08-11T16:43:42;99100.77;;;19.95;58.40
37904;BME280;23738;50.422;18.758;2022-08-11T16:46:29;99097.52;;;19.93;58.44
37904;BME280;23738;50.422;18.758;2022-08-11T16:49:22;99101.20;;;19.89;58.52
37904;BME280;23738;50.422;18.758;2022-08-11T16:51:53;99097.41;;;19.85;58.61
37904;BME280;23738;50.422;18.758;2022-08-11T16:54:19;99095.42;;;19.78;58.74
37904;BME280;23738;50.422;18.758;2022-08-11T16:56:51;99092.36;;;19.72;58.92